createdAt,value
2022-08-25T00:04:17.095Z,98211.38
2022-08-25T00:34:25.564Z,98212.53
2022-08-25T01:04:29.648Z,98211.53
2022-08-25T01:34:37.569Z,98213.41
2022-08-25T02:04:44.256Z,98225.63
2022-08-25T02:34:48.759Z,98223.53
2022-08-25T03:04:53.637Z,98207.63
2022-08-25T03:34:59.648Z,98181.59
2022-08-25T04:05:03.797Z,98169.84
2022-08-25T04:35:09.363Z,98181.84
2022-08-25T05:05:14.540Z,98181.59
2022-08-25T05:35:19.818Z,98183.09
2022-08-25T06:05:24.248Z,98167.78
2022-08-25T06:35:28.692Z,98166.66
2022-08-25T07:05:43.106Z,98157.34
2022-08-25T07:35:48.421Z,98164.22
2022-08-25T08:05:56.458Z,98159.44
2022-08-25T08:36:05.046Z,98166.19
2022-08-25T09:06:12.587Z,98133.72
2022-08-25T09:36:17.313Z,98112.75
2022-08-25T10:06:24.985Z,98075.34
2022-08-25T10:36:33.678Z,98046.88
2022-08-25T11:06:43.515Z,98004.72
2022-08-25T11:36:54.145Z,97998.81
2022-08-25T12:07:25.067Z,97971.91
2022-08-25T12:37:29.927Z,97940.47
2022-08-25T13:07:50.351Z,97929.41
2022-08-25T13:37:54.962Z,97886.69
2022-08-25T14:08:15.735Z,97869.09
2022-08-25T14:38:21.188Z,97858.19
2022-08-25T15:08:43.911Z,97834.19
2022-08-25T15:38:50.352Z,97807.94
2022-08-25T16:08:54.544Z,97811.84
2022-08-25T16:39:00.908Z,97793.63
2022-08-25T17:09:05.680Z,97804.00
2022-08-25T17:39:12.661Z,97802.75
2022-08-25T18:09:19.285Z,97808.16
2022-08-25T18:39:41.796Z,97812.34
2022-08-25T19:09:48.347Z,97816.81
2022-08-25T19:39:55.769Z,97813.81
2022-08-25T20:10:02.535Z,97833.19
2022-08-25T20:40:09.306Z,97833.56
2022-08-25T21:10:14.095Z,97836.31
2022-08-25T21:40:19.466Z,97830.34
2022-08-25T22:10:23.767Z,97827.66
2022-08-25T22:40:29.241Z,97844.47
2022-08-25T23:10:33.499Z,97829.66
2022-08-25T23:40:40.659Z,97818.03
